Accueil
METAR-TAF:

METAR-TAF

Aéroports :

Plate-forme pétrolière

P11-b, Pays-Bas

latitude: 52-21-36N, longitude: 3-20-30E, altitude: 24 m

Observation

Le bulletin a été fait il y a 27 minutes, à 06:55 UTC
Vent 12 kt de est/nord-est
Température 7°C
Humidité 87%
Pression 1025 hPa
Visibilité: 5000 m
Nuages épars à une hauteur de 300 ft
Nuages fragmentés à une hauteur de 400 ft
Ciel couvert à une hauteur de 500 ft
brume

METAR: EHPG 290655Z AUTO 06012KT 5000 BR SCT003 BKN004 OVC005 07/05 Q1025

Heure: 08:22 (07:22 UTC)


TAF: absent

Observations et prévisions météorologiques de plus de 4000 aéroports (messages METAR et TAF).

Les stations disponibles sont représentées par des disques jaunes et rouges sur la carte.

Passer la souris dessus pour voir le nom de la station.

Cliquer dessus pour voir les observations et prévisions météorologiques.

Pour changer de carte: cliquez sur les boutons verts avec une croix noire pour zoomer, sur le bouton vert avec un tiret pour effectuer un zoom arrière, ou sur les flèches vertes pour les cartes adjacentes.


METAR-TAF: